sensor_id;sensor_type;location;lat;lon;timestamp;P1;durP1;ratioP1;P2;durP2;ratioP2
3543;SDS011;1786;52.870;9.578;2023-07-22T00:01:25;12.47;;;8.57;;
3543;SDS011;1786;52.870;9.578;2023-07-22T00:03:51;9.87;;;8.50;;
3543;SDS011;1786;52.870;9.578;2023-07-22T00:06:18;13.77;;;8.90;;
3543;SDS011;1786;52.870;9.578;2023-07-22T00:08:45;9.93;;;7.23;;
3543;SDS011;1786;52.870;9.578;2023-07-22T00:11:11;9.07;;;7.70;;
3543;SDS011;1786;52.870;9.578;2023-07-22T00:13:38;12.03;;;7.73;;
3543;SDS011;1786;52.870;9.578;2023-07-22T00:16:05;10.87;;;8.97;;
3543;SDS011;1786;52.870;9.578;2023-07-22T00:18:34;10.20;;;9.10;;
3543;SDS011;1786;52.870;9.578;2023-07-22T00:21:01;8.93;;;7.83;;
3543;SDS011;1786;52.870;9.578;2023-07-22T00:23:27;10.83;;;8.63;;
3543;SDS011;1786;52.870;9.578;2023-07-22T00:25:54;10.50;;;9.40;;
3543;SDS011;1786;52.870;9.578;2023-07-22T00:28:20;9.70;;;8.70;;
3543;SDS011;1786;52.870;9.578;2023-07-22T00:30:47;11.63;;;8.43;;
3543;SDS011;1786;52.870;9.578;2023-07-22T00:33:15;15.37;;;8.67;;
3543;SDS011;1786;52.870;9.578;2023-07-22T00:35:42;13.90;;;9.00;;
3543;SDS011;1786;52.870;9.578;2023-07-22T00:38:09;10.43;;;9.33;;
3543;SDS011;1786;52.870;9.578;2023-07-22T00:40:36;14.93;;;9.30;;
3543;SDS011;1786;52.870;9.578;2023-07-22T00:43:04;9.60;;;8.57;;
3543;SDS011;1786;52.870;9.578;2023-07-22T00:45:31;11.60;;;9.23;;
3543;SDS011;1786;52.870;9.578;2023-07-22T00:47:59;11.60;;;9.33;;
3543;SDS011;1786;52.870;9.578;2023-07-22T00:50:25;15.60;;;9.37;;
3543;SDS011;1786;52.870;9.578;2023-07-22T00:52:53;14.00;;;10.57;;
3543;SDS011;1786;52.870;9.578;2023-07-22T00:55:20;16.30;;;11.27;;
3543;SDS011;1786;52.870;9.578;2023-07-22T00:57:47;14.07;;;9.63;;
3543;SDS011;1786;52.870;9.578;2023-07-22T01:00:14;21.43;;;10.67;;
3543;SDS011;1786;52.870;9.578;2023-07-22T01:02:42;14.00;;;11.10;;
3543;SDS011;1786;52.870;9.578;2023-07-22T01:05:10;14.70;;;9.67;;
3543;SDS011;1786;52.870;9.578;2023-07-22T01:07:38;12.57;;;9.77;;
3543;SDS011;1786;52.870;9.578;2023-07-22T01:10:06;16.57;;;9.83;;
3543;SDS011;1786;52.870;9.578;2023-07-22T01:12:34;13.13;;;9.30;;
3543;SDS011;1786;52.870;9.578;2023-07-22T01:15:01;15.90;;;10.37;;
3543;SDS011;1786;52.870;9.578;2023-07-22T01:17:30;14.43;;;9.80;;
3543;SDS011;1786;52.870;9.578;2023-07-22T01:19:57;14.60;;;9.13;;
3543;SDS011;1786;52.870;9.578;2023-07-22T01:22:24;14.93;;;10.10;;
3543;SDS011;1786;52.870;9.578;2023-07-22T01:24:52;23.20;;;9.77;;
3543;SDS011;1786;52.870;9.578;2023-07-22T01:27:19;15.03;;;9.07;;
3543;SDS011;1786;52.870;9.578;2023-07-22T01:29:46;11.83;;;9.00;;
3543;SDS011;1786;52.870;9.578;2023-07-22T01:32:12;19.80;;;9.47;;
3543;SDS011;1786;52.870;9.578;2023-07-22T01:34:39;10.90;;;9.43;;
3543;SDS011;1786;52.870;9.578;2023-07-22T01:37:06;9.73;;;8.33;;
3543;SDS011;1786;52.870;9.578;2023-07-22T01:39:33;12.20;;;8.67;;
3543;SDS011;1786;52.870;9.578;2023-07-22T01:42:00;16.70;;;9.87;;
3543;SDS011;1786;52.870;9.578;2023-07-22T01:44:27;19.47;;;9.37;;
3543;SDS011;1786;52.870;9.578;2023-07-22T01:46:54;14.10;;;10.53;;
3543;SDS011;1786;52.870;9.578;2023-07-22T01:49:21;20.33;;;9.73;;
3543;SDS011;1786;52.870;9.578;2023-07-22T01:51:48;15.70;;;9.90;;
3543;SDS011;1786;52.870;9.578;2023-07-22T01:54:14;16.50;;;9.83;;
3543;SDS011;1786;52.870;9.578;2023-07-22T01:56:41;14.30;;;9.77;;
3543;SDS011;1786;52.870;9.578;2023-07-22T01:59:08;11.87;;;9.07;;
3543;SDS011;1786;52.870;9.578;2023-07-22T02:01:35;15.40;;;9.77;;
3543;SDS011;1786;52.870;9.578;2023-07-22T02:04:02;18.73;;;9.20;;
3543;SDS011;1786;52.870;9.578;2023-07-22T02:06:29;18.47;;;10.27;;
3543;SDS011;1786;52.870;9.578;2023-07-22T02:08:57;14.83;;;9.30;;
3543;SDS011;1786;52.870;9.578;2023-07-22T02:11:23;12.10;;;8.80;;
3543;SDS011;1786;52.870;9.578;2023-07-22T02:13:50;11.50;;;9.13;;
3543;SDS011;1786;52.870;9.578;2023-07-22T02:16:17;15.17;;;9.40;;
3543;SDS011;1786;52.870;9.578;2023-07-22T02:18:45;19.53;;;10.33;;
3543;SDS011;1786;52.870;9.578;2023-07-22T02:21:12;15.10;;;10.23;;
3543;SDS011;1786;52.870;9.578;2023-07-22T02:23:38;13.37;;;9.33;;
3543;SDS011;1786;52.870;9.578;2023-07-22T02:26:05;23.53;;;9.87;;
3543;SDS011;1786;52.870;9.578;2023-07-22T02:28:33;17.30;;;9.40;;
3543;SDS011;1786;52.870;9.578;2023-07-22T02:31:01;14.80;;;9.47;;
3543;SDS011;1786;52.870;9.578;2023-07-22T02:33:32;17.73;;;9.80;;
3543;SDS011;1786;52.870;9.578;2023-07-22T02:35:59;17.10;;;9.23;;
3543;SDS011;1786;52.870;9.578;2023-07-22T02:38:26;13.53;;;9.50;;
3543;SDS011;1786;52.870;9.578;2023-07-22T02:40:53;19.90;;;10.60;;
3543;SDS011;1786;52.870;9.578;2023-07-22T02:43:20;13.67;;;9.27;;
3543;SDS011;1786;52.870;9.578;2023-07-22T02:45:46;16.03;;;10.40;;
3543;SDS011;1786;52.870;9.578;2023-07-22T02:48:14;15.73;;;10.40;;
3543;SDS011;1786;52.870;9.578;2023-07-22T02:50:41;17.40;;;9.97;;
3543;SDS011;1786;52.870;9.578;2023-07-22T02:53:07;20.33;;;10.10;;
3543;SDS011;1786;52.870;9.578;2023-07-22T02:55:34;19.47;;;10.90;;
3543;SDS011;1786;52.870;9.578;2023-07-22T02:58:01;13.17;;;9.97;;
3543;SDS011;1786;52.870;9.578;2023-07-22T03:00:28;11.40;;;9.83;;
3543;SDS011;1786;52.870;9.578;2023-07-22T03:02:55;14.17;;;9.70;;
3543;SDS011;1786;52.870;9.578;2023-07-22T03:05:30;14.43;;;9.80;;
3543;SDS011;1786;52.870;9.578;2023-07-22T03:07:58;21.30;;;10.60;;
3543;SDS011;1786;52.870;9.578;2023-07-22T03:10:25;18.90;;;10.17;;
3543;SDS011;1786;52.870;9.578;2023-07-22T03:12:52;21.60;;;10.07;;
3543;SDS011;1786;52.870;9.578;2023-07-22T03:15:25;16.93;;;10.83;;
3543;SDS011;1786;52.870;9.578;2023-07-22T03:17:52;18.87;;;9.80;;
3543;SDS011;1786;52.870;9.578;2023-07-22T03:20:20;20.90;;;10.03;;
3543;SDS011;1786;52.870;9.578;2023-07-22T03:22:48;17.57;;;8.93;;
3543;SDS011;1786;52.870;9.578;2023-07-22T03:25:16;18.27;;;10.43;;
3543;SDS011;1786;52.870;9.578;2023-07-22T03:27:44;19.67;;;10.20;;
3543;SDS011;1786;52.870;9.578;2023-07-22T03:33:30;18.20;;;9.00;;
3543;SDS011;1786;52.870;9.578;2023-07-22T03:35:57;16.43;;;9.60;;
3543;SDS011;1786;52.870;9.578;2023-07-22T03:38:24;20.53;;;9.33;;
3543;SDS011;1786;52.870;9.578;2023-07-22T03:40:51;19.67;;;9.13;;
3543;SDS011;1786;52.870;9.578;2023-07-22T03:43:19;21.67;;;10.40;;
3543;SDS011;1786;52.870;9.578;2023-07-22T03:45:46;20.33;;;10.20;;
3543;SDS011;1786;52.870;9.578;2023-07-22T03:48:13;12.90;;;9.30;;
3543;SDS011;1786;52.870;9.578;2023-07-22T03:50:39;13.83;;;8.73;;
3543;SDS011;1786;52.870;9.578;2023-07-22T03:53:06;19.10;;;9.60;;
3543;SDS011;1786;52.870;9.578;2023-07-22T03:55:33;19.03;;;9.57;;
3543;SDS011;1786;52.870;9.578;2023-07-22T03:57:59;13.53;;;8.40;;
3543;SDS011;1786;52.870;9.578;2023-07-22T04:00:26;15.83;;;9.10;;
3543;SDS011;1786;52.870;9.578;2023-07-22T04:02:53;14.27;;;9.27;;
3543;SDS011;1786;52.870;9.578;2023-07-22T04:05:19;18.10;;;8.70;;
3543;SDS011;1786;52.870;9.578;2023-07-22T04:07:46;14.20;;;8.83;;
3543;SDS011;1786;52.870;9.578;2023-07-22T04:10:13;14.93;;;8.07;;
3543;SDS011;1786;52.870;9.578;2023-07-22T04:12:40;17.70;;;8.50;;
3543;SDS011;1786;52.870;9.578;2023-07-22T04:15:08;16.40;;;8.63;;
3543;SDS011;1786;52.870;9.578;2023-07-22T04:17:35;15.40;;;8.97;;
3543;SDS011;1786;52.870;9.578;2023-07-22T04:20:02;17.23;;;8.97;;
3543;SDS011;1786;52.870;9.578;2023-07-22T04:22:30;21.03;;;8.17;;
3543;SDS011;1786;52.870;9.578;2023-07-22T04:24:58;12.60;;;8.57;;
3543;SDS011;1786;52.870;9.578;2023-07-22T04:27:26;16.53;;;9.00;;
3543;SDS011;1786;52.870;9.578;2023-07-22T04:29:53;15.17;;;9.60;;
3543;SDS011;1786;52.870;9.578;2023-07-22T04:32:20;20.37;;;8.00;;
3543;SDS011;1786;52.870;9.578;2023-07-22T04:34:47;12.40;;;8.27;;
3543;SDS011;1786;52.870;9.578;2023-07-22T04:37:14;15.13;;;8.60;;
3543;SDS011;1786;52.870;9.578;2023-07-22T04:39:46;13.30;;;8.87;;
3543;SDS011;1786;52.870;9.578;2023-07-22T04:42:14;15.93;;;8.57;;
3543;SDS011;1786;52.870;9.578;2023-07-22T04:44:41;15.23;;;8.30;;
3543;SDS011;1786;52.870;9.578;2023-07-22T04:47:07;11.50;;;8.17;;
3543;SDS011;1786;52.870;9.578;2023-07-22T04:49:34;13.07;;;8.50;;
3543;SDS011;1786;52.870;9.578;2023-07-22T04:52:01;14.83;;;8.30;;
3543;SDS011;1786;52.870;9.578;2023-07-22T04:54:28;14.67;;;8.23;;
3543;SDS011;1786;52.870;9.578;2023-07-22T04:56:55;19.00;;;7.77;;
3543;SDS011;1786;52.870;9.578;2023-07-22T04:59:21;15.93;;;8.67;;
3543;SDS011;1786;52.870;9.578;2023-07-22T05:01:48;14.93;;;8.13;;
3543;SDS011;1786;52.870;9.578;2023-07-22T05:04:14;18.77;;;7.20;;
3543;SDS011;1786;52.870;9.578;2023-07-22T05:06:41;18.77;;;8.00;;
3543;SDS011;1786;52.870;9.578;2023-07-22T05:09:08;14.10;;;7.23;;
3543;SDS011;1786;52.870;9.578;2023-07-22T05:11:34;12.67;;;8.07;;
3543;SDS011;1786;52.870;9.578;2023-07-22T05:14:01;10.70;;;6.80;;
3543;SDS011;1786;52.870;9.578;2023-07-22T05:16:27;13.50;;;8.50;;
3543;SDS011;1786;52.870;9.578;2023-07-22T05:18:55;15.83;;;8.60;;
3543;SDS011;1786;52.870;9.578;2023-07-22T05:21:21;14.10;;;7.40;;
3543;SDS011;1786;52.870;9.578;2023-07-22T05:23:48;10.43;;;7.70;;
3543;SDS011;1786;52.870;9.578;2023-07-22T05:26:15;12.60;;;8.00;;
3543;SDS011;1786;52.870;9.578;2023-07-22T05:28:41;13.03;;;6.90;;
3543;SDS011;1786;52.870;9.578;2023-07-22T05:31:09;10.50;;;7.10;;
3543;SDS011;1786;52.870;9.578;2023-07-22T05:33:35;11.20;;;6.97;;
3543;SDS011;1786;52.870;9.578;2023-07-22T05:36:03;12.23;;;7.17;;
3543;SDS011;1786;52.870;9.578;2023-07-22T05:38:30;15.93;;;6.70;;
3543;SDS011;1786;52.870;9.578;2023-07-22T05:40:57;11.60;;;7.20;;
3543;SDS011;1786;52.870;9.578;2023-07-22T05:43:24;11.87;;;7.30;;
3543;SDS011;1786;52.870;9.578;2023-07-22T05:45:51;11.37;;;6.60;;
3543;SDS011;1786;52.870;9.578;2023-07-22T05:48:17;12.07;;;6.27;;
3543;SDS011;1786;52.870;9.578;2023-07-22T05:50:44;13.67;;;8.10;;
3543;SDS011;1786;52.870;9.578;2023-07-22T05:53:11;8.30;;;6.50;;
3543;SDS011;1786;52.870;9.578;2023-07-22T05:55:38;15.50;;;6.20;;
3543;SDS011;1786;52.870;9.578;2023-07-22T05:58:05;10.87;;;6.80;;
3543;SDS011;1786;52.870;9.578;2023-07-22T06:00:33;8.10;;;6.73;;
3543;SDS011;1786;52.870;9.578;2023-07-22T06:03:00;15.77;;;6.70;;
3543;SDS011;1786;52.870;9.578;2023-07-22T06:05:27;10.40;;;6.23;;
3543;SDS011;1786;52.870;9.578;2023-07-22T06:07:53;9.10;;;7.27;;
3543;SDS011;1786;52.870;9.578;2023-07-22T06:10:21;12.50;;;6.47;;
3543;SDS011;1786;52.870;9.578;2023-07-22T06:12:48;9.17;;;4.97;;
3543;SDS011;1786;52.870;9.578;2023-07-22T06:15:14;7.13;;;6.03;;
3543;SDS011;1786;52.870;9.578;2023-07-22T06:17:41;11.80;;;6.23;;
3543;SDS011;1786;52.870;9.578;2023-07-22T06:20:09;10.07;;;5.80;;
3543;SDS011;1786;52.870;9.578;2023-07-22T06:22:36;7.27;;;4.80;;
3543;SDS011;1786;52.870;9.578;2023-07-22T06:25:03;7.00;;;5.13;;
3543;SDS011;1786;52.870;9.578;2023-07-22T06:27:30;8.63;;;5.40;;
3543;SDS011;1786;52.870;9.578;2023-07-22T06:29:57;8.03;;;5.73;;
3543;SDS011;1786;52.870;9.578;2023-07-22T06:32:24;14.80;;;5.40;;
3543;SDS011;1786;52.870;9.578;2023-07-22T06:34:51;8.90;;;6.33;;
3543;SDS011;1786;52.870;9.578;2023-07-22T06:37:17;6.93;;;5.27;;
3543;SDS011;1786;52.870;9.578;2023-07-22T06:39:44;8.03;;;4.97;;
3543;SDS011;1786;52.870;9.578;2023-07-22T06:42:11;10.50;;;5.43;;
3543;SDS011;1786;52.870;9.578;2023-07-22T06:44:38;6.90;;;5.20;;
3543;SDS011;1786;52.870;9.578;2023-07-22T06:47:05;12.93;;;4.80;;
3543;SDS011;1786;52.870;9.578;2023-07-22T06:49:31;9.53;;;5.50;;
3543;SDS011;1786;52.870;9.578;2023-07-22T06:51:58;6.67;;;5.27;;
3543;SDS011;1786;52.870;9.578;2023-07-22T06:54:26;8.33;;;5.40;;
3543;SDS011;1786;52.870;9.578;2023-07-22T06:56:53;6.90;;;5.30;;
3543;SDS011;1786;52.870;9.578;2023-07-22T06:59:19;7.10;;;5.10;;
3543;SDS011;1786;52.870;9.578;2023-07-22T07:01:46;6.40;;;5.10;;
3543;SDS011;1786;52.870;9.578;2023-07-22T07:04:13;5.10;;;4.50;;
3543;SDS011;1786;52.870;9.578;2023-07-22T07:06:40;5.80;;;4.30;;
3543;SDS011;1786;52.870;9.578;2023-07-22T07:09:06;5.07;;;4.53;;
3543;SDS011;1786;52.870;9.578;2023-07-22T07:11:33;7.07;;;4.13;;
3543;SDS011;1786;52.870;9.578;2023-07-22T07:14:00;7.33;;;4.17;;
3543;SDS011;1786;52.870;9.578;2023-07-22T07:16:27;7.60;;;4.10;;
3543;SDS011;1786;52.870;9.578;2023-07-22T07:18:56;9.50;;;4.23;;
3543;SDS011;1786;52.870;9.578;2023-07-22T07:21:24;6.77;;;3.70;;
3543;SDS011;1786;52.870;9.578;2023-07-22T07:23:52;7.47;;;3.80;;
3543;SDS011;1786;52.870;9.578;2023-07-22T07:26:20;4.50;;;4.10;;
3543;SDS011;1786;52.870;9.578;2023-07-22T07:28:47;4.50;;;3.30;;
3543;SDS011;1786;52.870;9.578;2023-07-22T07:31:15;5.50;;;3.97;;
3543;SDS011;1786;52.870;9.578;2023-07-22T07:33:42;7.03;;;3.73;;
3543;SDS011;1786;52.870;9.578;2023-07-22T07:36:08;3.90;;;3.60;;
3543;SDS011;1786;52.870;9.578;2023-07-22T07:38:35;7.07;;;4.23;;
3543;SDS011;1786;52.870;9.578;2023-07-22T07:41:03;6.93;;;3.13;;
3543;SDS011;1786;52.870;9.578;2023-07-22T07:43:31;3.57;;;2.90;;
3543;SDS011;1786;52.870;9.578;2023-07-22T07:48:46;5.37;;;2.67;;
3543;SDS011;1786;52.870;9.578;2023-07-22T07:51:13;4.63;;;2.20;;
3543;SDS011;1786;52.870;9.578;2023-07-22T07:53:42;2.37;;;2.27;;
3543;SDS011;1786;52.870;9.578;2023-07-22T07:56:11;2.80;;;2.60;;
3543;SDS011;1786;52.870;9.578;2023-07-22T07:58:38;4.23;;;2.73;;
3543;SDS011;1786;52.870;9.578;2023-07-22T08:01:06;2.40;;;2.30;;
3543;SDS011;1786;52.870;9.578;2023-07-22T08:03:33;2.40;;;2.20;;
3543;SDS011;1786;52.870;9.578;2023-07-22T08:06:02;4.83;;;2.50;;
3543;SDS011;1786;52.870;9.578;2023-07-22T08:08:29;2.50;;;2.30;;
3543;SDS011;1786;52.870;9.578;2023-07-22T08:11:03;2.63;;;2.43;;
3543;SDS011;1786;52.870;9.578;2023-07-22T08:13:31;5.33;;;2.77;;
3543;SDS011;1786;52.870;9.578;2023-07-22T08:16:01;2.37;;;2.20;;
3543;SDS011;1786;52.870;9.578;2023-07-22T08:18:30;2.60;;;2.50;;
3543;SDS011;1786;52.870;9.578;2023-07-22T08:20:57;3.57;;;2.53;;
3543;SDS011;1786;52.870;9.578;2023-07-22T08:23:24;5.90;;;2.10;;
3543;SDS011;1786;52.870;9.578;2023-07-22T08:25:51;14.30;;;5.80;;
3543;SDS011;1786;52.870;9.578;2023-07-22T08:28:17;2.30;;;2.20;;
3543;SDS011;1786;52.870;9.578;2023-07-22T08:30:44;4.30;;;2.00;;
3543;SDS011;1786;52.870;9.578;2023-07-22T08:33:12;3.90;;;2.10;;
3543;SDS011;1786;52.870;9.578;2023-07-22T08:35:42;1.87;;;1.77;;
3543;SDS011;1786;52.870;9.578;2023-07-22T08:38:09;4.60;;;2.20;;
3543;SDS011;1786;52.870;9.578;2023-07-22T08:40:36;2.60;;;2.40;;
3543;SDS011;1786;52.870;9.578;2023-07-22T08:43:05;4.73;;;2.60;;
3543;SDS011;1786;52.870;9.578;2023-07-22T08:45:34;2.90;;;1.53;;
3543;SDS011;1786;52.870;9.578;2023-07-22T08:48:07;2.30;;;2.20;;
3543;SDS011;1786;52.870;9.578;2023-07-22T08:50:46;3.10;;;2.93;;
3543;SDS011;1786;52.870;9.578;2023-07-22T08:53:19;2.33;;;2.07;;
3543;SDS011;1786;52.870;9.578;2023-07-22T08:55:46;2.40;;;2.30;;
3543;SDS011;1786;52.870;9.578;2023-07-22T08:58:14;3.43;;;2.63;;
3543;SDS011;1786;52.870;9.578;2023-07-22T09:00:41;3.70;;;2.50;;
3543;SDS011;1786;52.870;9.578;2023-07-22T09:03:09;2.80;;;2.70;;
3543;SDS011;1786;52.870;9.578;2023-07-22T09:05:37;3.47;;;3.20;;
3543;SDS011;1786;52.870;9.578;2023-07-22T09:08:06;3.80;;;3.50;;
3543;SDS011;1786;52.870;9.578;2023-07-22T09:10:34;7.50;;;3.07;;
3543;SDS011;1786;52.870;9.578;2023-07-22T09:13:02;5.57;;;3.87;;
3543;SDS011;1786;52.870;9.578;2023-07-22T09:15:29;4.70;;;4.30;;
3543;SDS011;1786;52.870;9.578;2023-07-22T09:18:01;4.97;;;4.60;;
3543;SDS011;1786;52.870;9.578;2023-07-22T09:20:29;4.13;;;3.83;;
3543;SDS011;1786;52.870;9.578;2023-07-22T09:22:56;10.20;;;4.77;;
3543;SDS011;1786;52.870;9.578;2023-07-22T09:25:39;7.80;;;4.67;;
3543;SDS011;1786;52.870;9.578;2023-07-22T09:28:06;4.87;;;4.30;;
3543;SDS011;1786;52.870;9.578;2023-07-22T09:30:34;4.63;;;4.07;;
3543;SDS011;1786;52.870;9.578;2023-07-22T09:33:02;6.23;;;4.00;;
3543;SDS011;1786;52.870;9.578;2023-07-22T09:35:31;8.67;;;5.23;;
3543;SDS011;1786;52.870;9.578;2023-07-22T09:38:10;6.03;;;4.50;;
3543;SDS011;1786;52.870;9.578;2023-07-22T09:40:39;4.53;;;4.10;;
3543;SDS011;1786;52.870;9.578;2023-07-22T09:43:09;5.50;;;4.60;;
3543;SDS011;1786;52.870;9.578;2023-07-22T09:45:37;5.77;;;4.33;;
3543;SDS011;1786;52.870;9.578;2023-07-22T09:48:06;5.93;;;4.90;;
3543;SDS011;1786;52.870;9.578;2023-07-22T09:50:35;10.03;;;5.57;;
3543;SDS011;1786;52.870;9.578;2023-07-22T09:53:03;5.77;;;5.37;;
3543;SDS011;1786;52.870;9.578;2023-07-22T09:55:31;5.60;;;5.20;;
3543;SDS011;1786;52.870;9.578;2023-07-22T09:58:02;5.70;;;5.20;;
3543;SDS011;1786;52.870;9.578;2023-07-22T10:00:30;6.27;;;5.67;;
3543;SDS011;1786;52.870;9.578;2023-07-22T10:03:00;7.63;;;5.90;;
3543;SDS011;1786;52.870;9.578;2023-07-22T10:05:28;9.57;;;5.83;;
3543;SDS011;1786;52.870;9.578;2023-07-22T10:07:58;7.30;;;6.60;;
3543;SDS011;1786;52.870;9.578;2023-07-22T10:10:26;10.00;;;6.20;;
3543;SDS011;1786;52.870;9.578;2023-07-22T10:12:57;5.70;;;5.20;;
3543;SDS011;1786;52.870;9.578;2023-07-22T10:15:28;6.43;;;5.20;;
3543;SDS011;1786;52.870;9.578;2023-07-22T10:17:56;7.23;;;6.53;;
3543;SDS011;1786;52.870;9.578;2023-07-22T10:20:23;7.20;;;5.53;;
3543;SDS011;1786;52.870;9.578;2023-07-22T10:22:50;6.93;;;6.10;;
3543;SDS011;1786;52.870;9.578;2023-07-22T10:25:19;8.40;;;6.50;;
3543;SDS011;1786;52.870;9.578;2023-07-22T10:27:47;6.27;;;5.67;;
3543;SDS011;1786;52.870;9.578;2023-07-22T10:30:16;8.47;;;5.37;;
3543;SDS011;1786;52.870;9.578;2023-07-22T10:32:45;7.10;;;6.40;;
3543;SDS011;1786;52.870;9.578;2023-07-22T10:38:06;7.50;;;6.00;;
3543;SDS011;1786;52.870;9.578;2023-07-22T10:40:44;7.30;;;5.87;;
3543;SDS011;1786;52.870;9.578;2023-07-22T10:43:12;9.97;;;5.90;;
3543;SDS011;1786;52.870;9.578;2023-07-22T10:45:43;6.30;;;5.70;;
3543;SDS011;1786;52.870;9.578;2023-07-22T10:48:15;6.23;;;5.30;;
3543;SDS011;1786;52.870;9.578;2023-07-22T10:50:42;11.53;;;6.13;;
3543;SDS011;1786;52.870;9.578;2023-07-22T10:53:10;6.03;;;5.40;;
3543;SDS011;1786;52.870;9.578;2023-07-22T10:58:30;7.17;;;6.27;;
3543;SDS011;1786;52.870;9.578;2023-07-22T11:04:02;6.40;;;5.63;;
3543;SDS011;1786;52.870;9.578;2023-07-22T11:06:39;6.43;;;5.80;;
3543;SDS011;1786;52.870;9.578;2023-07-22T11:14:38;7.97;;;5.37;;
3543;SDS011;1786;52.870;9.578;2023-07-22T11:17:05;5.30;;;4.90;;
3543;SDS011;1786;52.870;9.578;2023-07-22T11:19:37;4.93;;;4.53;;
3543;SDS011;1786;52.870;9.578;2023-07-22T11:22:04;7.73;;;5.80;;
3543;SDS011;1786;52.870;9.578;2023-07-22T11:24:35;5.27;;;4.87;;
3543;SDS011;1786;52.870;9.578;2023-07-22T11:27:03;5.70;;;5.20;;
3543;SDS011;1786;52.870;9.578;2023-07-22T11:29:31;10.30;;;5.23;;
3543;SDS011;1786;52.870;9.578;2023-07-22T11:31:58;7.07;;;5.83;;
3543;SDS011;1786;52.870;9.578;2023-07-22T11:34:26;5.57;;;4.90;;
3543;SDS011;1786;52.870;9.578;2023-07-22T11:36:53;5.70;;;5.10;;
3543;SDS011;1786;52.870;9.578;2023-07-22T11:39:22;8.63;;;4.27;;
3543;SDS011;1786;52.870;9.578;2023-07-22T11:41:52;5.60;;;5.10;;
3543;SDS011;1786;52.870;9.578;2023-07-22T11:44:20;4.77;;;4.43;;
3543;SDS011;1786;52.870;9.578;2023-07-22T11:46:51;5.17;;;4.27;;
3543;SDS011;1786;52.870;9.578;2023-07-22T11:49:27;5.80;;;4.83;;
3543;SDS011;1786;52.870;9.578;2023-07-22T11:52:07;6.63;;;4.23;;
3543;SDS011;1786;52.870;9.578;2023-07-22T11:54:38;4.30;;;4.00;;
3543;SDS011;1786;52.870;9.578;2023-07-22T11:57:24;4.70;;;4.30;;
3543;SDS011;1786;52.870;9.578;2023-07-22T11:59:51;4.87;;;4.47;;
3543;SDS011;1786;52.870;9.578;2023-07-22T12:02:23;5.57;;;3.80;;
3543;SDS011;1786;52.870;9.578;2023-07-22T12:04:52;5.40;;;4.90;;
3543;SDS011;1786;52.870;9.578;2023-07-22T12:09:53;4.27;;;3.97;;
3543;SDS011;1786;52.870;9.578;2023-07-22T12:12:20;6.10;;;4.30;;
3543;SDS011;1786;52.870;9.578;2023-07-22T12:14:47;4.83;;;4.37;;
3543;SDS011;1786;52.870;9.578;2023-07-22T12:17:14;7.00;;;4.73;;
3543;SDS011;1786;52.870;9.578;2023-07-22T12:19:50;5.97;;;5.40;;
3543;SDS011;1786;52.870;9.578;2023-07-22T12:22:18;7.20;;;5.33;;
3543;SDS011;1786;52.870;9.578;2023-07-22T12:24:46;9.90;;;5.10;;
3543;SDS011;1786;52.870;9.578;2023-07-22T12:27:14;7.33;;;5.97;;
3543;SDS011;1786;52.870;9.578;2023-07-22T12:29:40;5.40;;;5.00;;
3543;SDS011;1786;52.870;9.578;2023-07-22T12:32:07;6.93;;;5.00;;
3543;SDS011;1786;52.870;9.578;2023-07-22T12:34:34;4.87;;;4.40;;
3543;SDS011;1786;52.870;9.578;2023-07-22T12:37:01;5.63;;;4.70;;
3543;SDS011;1786;52.870;9.578;2023-07-22T12:39:27;4.63;;;4.33;;
3543;SDS011;1786;52.870;9.578;2023-07-22T12:41:55;5.60;;;4.40;;
3543;SDS011;1786;52.870;9.578;2023-07-22T12:44:22;6.27;;;4.33;;
3543;SDS011;1786;52.870;9.578;2023-07-22T12:46:49;5.13;;;4.70;;
3543;SDS011;1786;52.870;9.578;2023-07-22T12:49:16;9.23;;;4.93;;
3543;SDS011;1786;52.870;9.578;2023-07-22T12:51:42;5.67;;;5.17;;
3543;SDS011;1786;52.870;9.578;2023-07-22T12:54:10;5.53;;;5.10;;
3543;SDS011;1786;52.870;9.578;2023-07-22T12:56:37;5.47;;;5.07;;
3543;SDS011;1786;52.870;9.578;2023-07-22T12:59:04;5.73;;;5.00;;
3543;SDS011;1786;52.870;9.578;2023-07-22T13:01:30;5.07;;;4.77;;
3543;SDS011;1786;52.870;9.578;2023-07-22T13:03:57;5.30;;;4.83;;
3543;SDS011;1786;52.870;9.578;2023-07-22T13:06:24;5.80;;;5.30;;
3543;SDS011;1786;52.870;9.578;2023-07-22T13:08:50;7.47;;;4.67;;
3543;SDS011;1786;52.870;9.578;2023-07-22T13:11:17;5.53;;;5.13;;
3543;SDS011;1786;52.870;9.578;2023-07-22T13:13:44;6.27;;;5.67;;
3543;SDS011;1786;52.870;9.578;2023-07-22T13:16:11;7.23;;;5.20;;
3543;SDS011;1786;52.870;9.578;2023-07-22T13:18:38;6.10;;;5.50;;
3543;SDS011;1786;52.870;9.578;2023-07-22T13:21:04;7.27;;;5.70;;
3543;SDS011;1786;52.870;9.578;2023-07-22T13:23:31;6.43;;;5.80;;
3543;SDS011;1786;52.870;9.578;2023-07-22T13:25:57;10.03;;;5.43;;
3543;SDS011;1786;52.870;9.578;2023-07-22T13:28:24;5.20;;;4.80;;
3543;SDS011;1786;52.870;9.578;2023-07-22T13:30:51;4.63;;;4.33;;
3543;SDS011;1786;52.870;9.578;2023-07-22T13:33:18;5.57;;;5.03;;
3543;SDS011;1786;52.870;9.578;2023-07-22T13:35:44;4.50;;;4.20;;
3543;SDS011;1786;52.870;9.578;2023-07-22T13:38:11;5.70;;;4.33;;
3543;SDS011;1786;52.870;9.578;2023-07-22T13:40:38;5.30;;;4.73;;
3543;SDS011;1786;52.870;9.578;2023-07-22T13:43:06;5.50;;;5.10;;
3543;SDS011;1786;52.870;9.578;2023-07-22T13:45:32;4.90;;;4.43;;
3543;SDS011;1786;52.870;9.578;2023-07-22T13:47:59;5.70;;;5.17;;
3543;SDS011;1786;52.870;9.578;2023-07-22T13:50:26;4.90;;;4.30;;
3543;SDS011;1786;52.870;9.578;2023-07-22T13:52:52;5.03;;;4.53;;
3543;SDS011;1786;52.870;9.578;2023-07-22T13:55:19;5.77;;;5.27;;
3543;SDS011;1786;52.870;9.578;2023-07-22T13:57:46;5.40;;;4.90;;
3543;SDS011;1786;52.870;9.578;2023-07-22T14:00:13;5.67;;;5.17;;
3543;SDS011;1786;52.870;9.578;2023-07-22T14:02:40;5.60;;;5.10;;
3543;SDS011;1786;52.870;9.578;2023-07-22T14:05:07;11.43;;;6.00;;
3543;SDS011;1786;52.870;9.578;2023-07-22T14:07:35;10.50;;;5.60;;
3543;SDS011;1786;52.870;9.578;2023-07-22T14:10:03;7.73;;;6.50;;
3543;SDS011;1786;52.870;9.578;2023-07-22T14:12:31;5.50;;;5.00;;
3543;SDS011;1786;52.870;9.578;2023-07-22T14:14:58;8.60;;;6.03;;
3543;SDS011;1786;52.870;9.578;2023-07-22T14:17:24;6.80;;;6.10;;
3543;SDS011;1786;52.870;9.578;2023-07-22T14:19:52;6.77;;;6.07;;
3543;SDS011;1786;52.870;9.578;2023-07-22T14:22:19;5.67;;;5.10;;
3543;SDS011;1786;52.870;9.578;2023-07-22T14:24:45;6.07;;;5.57;;
3543;SDS011;1786;52.870;9.578;2023-07-22T14:27:12;8.23;;;6.30;;
3543;SDS011;1786;52.870;9.578;2023-07-22T14:29:39;7.10;;;6.40;;
3543;SDS011;1786;52.870;9.578;2023-07-22T14:32:06;5.97;;;5.40;;
3543;SDS011;1786;52.870;9.578;2023-07-22T14:34:33;6.03;;;5.43;;
3543;SDS011;1786;52.870;9.578;2023-07-22T14:36:59;6.77;;;6.27;;
3543;SDS011;1786;52.870;9.578;2023-07-22T14:39:27;7.20;;;6.47;;
3543;SDS011;1786;52.870;9.578;2023-07-22T14:41:54;6.20;;;5.60;;
3543;SDS011;1786;52.870;9.578;2023-07-22T14:44:21;6.10;;;5.43;;
3543;SDS011;1786;52.870;9.578;2023-07-22T14:46:49;6.83;;;6.13;;
3543;SDS011;1786;52.870;9.578;2023-07-22T14:49:15;6.07;;;5.50;;
3543;SDS011;1786;52.870;9.578;2023-07-22T14:51:42;8.77;;;5.47;;
3543;SDS011;1786;52.870;9.578;2023-07-22T14:54:09;6.00;;;5.13;;
3543;SDS011;1786;52.870;9.578;2023-07-22T14:56:36;7.20;;;4.90;;
3543;SDS011;1786;52.870;9.578;2023-07-22T14:59:03;5.97;;;5.47;;
3543;SDS011;1786;52.870;9.578;2023-07-22T15:01:39;8.70;;;5.63;;
3543;SDS011;1786;52.870;9.578;2023-07-22T15:04:06;6.20;;;5.67;;
3543;SDS011;1786;52.870;9.578;2023-07-22T15:06:33;6.63;;;6.00;;
3543;SDS011;1786;52.870;9.578;2023-07-22T15:09:01;6.67;;;5.90;;
3543;SDS011;1786;52.870;9.578;2023-07-22T15:11:28;14.67;;;6.07;;
3543;SDS011;1786;52.870;9.578;2023-07-22T15:13:56;6.67;;;6.07;;
3543;SDS011;1786;52.870;9.578;2023-07-22T15:16:22;8.53;;;6.37;;
3543;SDS011;1786;52.870;9.578;2023-07-22T15:18:49;6.63;;;5.97;;
3543;SDS011;1786;52.870;9.578;2023-07-22T15:21:16;6.93;;;6.17;;
3543;SDS011;1786;52.870;9.578;2023-07-22T15:23:43;8.37;;;6.60;;
3543;SDS011;1786;52.870;9.578;2023-07-22T15:26:09;7.20;;;6.43;;
3543;SDS011;1786;52.870;9.578;2023-07-22T15:28:36;7.00;;;6.30;;
3543;SDS011;1786;52.870;9.578;2023-07-22T15:31:03;10.60;;;5.87;;
3543;SDS011;1786;52.870;9.578;2023-07-22T15:33:30;10.97;;;7.20;;